Station: Narrabri  

  Atmospheric Gas Attenuation - ITU Rec 676-11   ----------------- dB/100km -----------------
Date Time Temp RH % AH g/m3 Dew Point Wind Direction Speed kph Gust kph Barometer mB Rainfall Since 9am 24GHz 47GHz 76GHz 122GHz 134GHz 241GHz
08/05 12:30 15.3 48 6.27 4.4 7 15 1022.6 0 14.6 22.2 30.7 79.9 68.2 232.8
08/05 12:20 15.6 48 6.38 4.6 4 6 1022.8 0 14.8 22.3 30.9 80.7 69.3 236.5
08/05 12:10 15 51 6.54 5 7 9 1023 0 15.2 22.7 31.8 82.9 71.7 245.1
08/05 12:00 14.6 48 6.01 3.7 7 17 1023.3 0 14.0 22.1 30.0 78.1 65.7 224.0
08/05 11:50 14.2 49 5.98 3.7 13 15 1023.5 0 14.0 22.1 30.0 78.2 65.7 223.9
08/05 11:40 14.4 49 6.06 3.8 6 9 1023.6 0 14.2 22.2 30.3 78.8 66.5 226.7
08/05 11:30 14.1 51 6.19 4.1 9 19 1023.7 0 14.4 22.5 30.9 80.4 68.3 233.1
08/05 11:20 13.7 53 6.28 4.3 9 11 1023.9 0 14.7 22.7 31.3 81.7 69.8 238.1
08/05 11:10 13.8 51 6.08 3.9 7 9 1024.1 0 14.2 22.4 30.6 79.7 67.3 229.3
08/05 11:00 13.6 53 6.24 4.2 11 20 1024.3 0 14.6 22.7 31.3 81.5 69.4 236.8
08/05 10:50 13.7 50 5.92 3.5 9 17 1024.4 0 13.9 22.2 30.0 78.2 65.5 222.9
08/05 10:40 13.6 51 6 3.7 17 19 1024.4 0 14.1 22.3 30.4 79.1 66.5 226.6
08/05 10:30 13.4 53 6.16 4 9 19 1024.4 0 14.4 22.6 31.0 80.9 68.6 234.0
08/05 10:20 12.9 54 6.09 3.8 7 11 1024.5 0 14.3 22.6 31.0 80.7 68.2 232.4
08/05 10:10 12.5 55 6.05 3.7 15 17 1024.5 0 14.2 22.7 31.0 80.7 68.1 231.8
08/05 10:00 12.2 55 5.94 3.4 11 19 1024.5 0 14.0 22.6 30.7 79.9 67.0 228.0
08/05 09:50 12.1 56 6.01 3.6 17 19 1024.7 0 14.1 22.7 31.0 80.7 67.9 231.3
08/05 09:40 11.5 56 5.79 3 11 13 1024.8 0 13.7 22.5 30.4 79.1 65.7 223.5
08/05 09:30 11.7 58 6.07 3.7 15 20 1024.8 0 14.3 22.9 31.4 81.7 69.0 235.1
08/05 09:20 11.2 58 5.88 3.3 11 13 1025 0 13.9 22.8 30.9 80.3 67.1 228.3
08/05 09:10 11.3 57 5.82 3.1 13 17 1024.9 0 13.8 22.6 30.6 79.6 66.3 225.4
08/05 09:00 11 59 5.91 3.3 17 24 1024.9 0 14.0 22.8 31.0 80.8 67.6 230.2
08/05 08:50 10.6 58 5.66 2.7 13 15 1025 0 13.5 22.6 30.3 78.7 64.9 220.4
08/05 08:40 10.2 58 5.52 2.3 15 17 1025.1 0 13.2 22.5 29.9 77.7 63.5 215.4
08/05 08:30 10.1 59 5.58 2.5 15 20 1025.2 0 13.3 22.6 30.1 78.4 64.3 218.3
08/05 08:20 9.7 59 5.44 2.1 11 15 1025 0 13.0 22.5 29.8 77.4 62.9 213.2
08/05 08:10 9.4 60 5.43 2 9 15 1025 0 13.0 22.5 29.8 77.6 63.0 213.6
08/05 08:00 8.8 61 5.31 1.7 9 13 1025.2 0 12.8 22.5 29.6 77.0 62.0 209.9
08/05 07:50 8.2 65 5.45 2 9 11 1025 0 13.1 22.8 30.4 79.0 64.2 217.7
08/05 07:40 7.4 68 5.41 1.9 6 7 1024.8 0 13.0 23.0 30.5 79.3 64.3 218.1
08/05 07:30 6.9 68 5.24 1.4 6 7 1024.7 0 12.7 22.8 30.0 78.1 62.6 211.7
08/05 07:20 6.5 69 5.18 1.2 6 7 1024.7 0 12.6 22.8 29.9 77.8 62.1 210.1
08/05 07:10 6.5 69 5.18 1.2 9 9 1024.5 0 12.6 22.8 29.9 77.8 62.1 210.1
08/05 07:00 6.6 66 4.99 0.7 9 13 1024.5 0 12.2 22.5 29.2 75.8 59.6 201.3
08/05 06:50 6.4 66 4.92 0.5 9 11 1024.4 0 12.0 22.5 29.0 75.2 58.8 198.6
08/05 06:40 6.2 67 4.93 0.5 11 11 1024.3 0 12.0 22.5 29.1 75.5 59.1 199.6
08/05 06:30 6.1 67 4.9 0.4 11 13 1024.2 0 12.0 22.5 29.0 75.3 58.8 198.5
08/05 06:20 6.2 66 4.86 0.3 11 13 1024.1 0 11.9 22.4 28.8 74.8 58.2 196.4
08/05 06:10 6.1 68 4.97 0.6 11 13 1024 0 12.1 22.6 29.2 76.0 59.7 201.6
08/05 06:00 6.4 66 4.92 0.5 9 11 1024 0 12.0 22.4 28.9 75.2 58.8 198.6
08/05 05:50 7 64 4.96 0.7 11 13 1024 0 12.1 22.4 28.9 75.0 58.9 198.9
08/05 05:40 7.3 63 4.98 0.7 11 15 1023.9 0 12.1 22.3 28.8 74.9 58.9 199.0
08/05 05:30 7.4 62 4.93 0.6 15 20 1023.9 0 12.0 22.2 28.6 74.3 58.2 196.5
08/05 05:20 7.8 61 4.98 0.8 17 19 1023.8 0 12.1 22.2 28.7 74.5 58.5 197.7
08/05 05:10 7.7 61 4.95 0.7 19 20 1023.8 0 12.0 22.2 28.6 74.3 58.2 196.7
08/05 05:00 7.4 62 4.93 0.6 13 19 1023.8 0 12.0 22.2 28.6 74.3 58.2 196.5
08/05 04:50 7.5 61 4.88 0.5 15 17 1023.8 0 11.9 22.1 28.4 73.7 57.5 194.1
08/05 04:40 7.6 60 4.84 0.3 15 17 1023.8 0 11.8 22.0 28.2 73.2 56.9 192.1
08/05 04:30 7.4 60 4.77 0.2 13 19 1023.8 0 11.7 22.0 28.0 72.7 56.2 189.5
08/05 04:20 7.4 60 4.77 0.2 13 13 1023.7 0 11.7 22.0 28.0 72.7 56.2 189.5
08/05 04:10 7.2 61 4.79 0.2 13 17 1023.6 0 11.7 22.0 28.1 73.1 56.6 190.8
08/05 04:00 7.1 62 4.84 0.3 13 17 1023.7 0 11.8 22.1 28.4 73.7 57.3 193.3
08/05 03:50 6.9 63 4.85 0.4 13 15 1023.7 0 11.9 22.2 28.5 74.0 57.6 194.2
08/05 03:40 6.8 63 4.82 0.3 9 13 1023.7 0 11.8 22.2 28.4 73.8 57.2 193.1
08/05 03:30 7.2 61 4.79 0.2 13 17 1023.6 0 11.7 22.0 28.1 73.1 56.6 190.8
08/05 03:20 7.4 60 4.77 0.2 13 15 1023.6 0 11.7 21.9 28.0 72.7 56.2 189.5
08/05 03:10 7.3 61 4.82 0.3 15 17 1023.7 0 11.8 22.1 28.2 73.3 56.9 191.9
08/05 03:00 7.3 62 4.9 0.5 15 19 1023.6 0 11.9 22.2 28.5 74.1 57.9 195.4
08/05 02:50 7.8 60 4.9 0.5 15 17 1023.6 0 11.9 22.1 28.4 73.6 57.5 194.2
08/05 02:40 7.8 58 4.74 0.1 15 19 1023.7 0 11.6 21.8 27.8 72.0 55.5 187.2
08/05 02:30 8 57 4.71 0 17 24 1023.7 0 11.5 21.7 27.6 71.6 55.0 185.5
08/05 02:20 8.1 57 4.74 0.1 19 20 1023.7 0 11.6 21.7 27.7 71.8 55.3 186.5
08/05 02:10 7.7 59 4.79 0.2 17 17 1023.7 0 11.7 21.9 28.0 72.6 56.2 189.6
08/05 02:00 7.1 61 4.76 0.1 15 20 1023.8 0 11.7 22.0 28.1 72.9 56.3 189.8
08/05 01:50 7.1 59 4.6 -0.4 13 15 1023.9 0 11.3 21.8 27.5 71.3 54.3 182.8
08/05 01:40 6.1 65 4.75 0 13 15 1023.8 0 11.7 22.2 28.4 73.7 56.9 191.7
08/05 01:30 5.9 65 4.69 -0.2 9 13 1023.9 0 11.5 22.2 28.2 73.3 56.3 189.5
08/05 01:20 6.2 64 4.71 -0.1 7 7 1023.9 0 11.6 22.2 28.2 73.2 56.3 189.7
08/05 01:10 6.4 61 4.55 -0.6 9 11 1023.9 0 11.2 21.9 27.5 71.4 54.2 182.2
08/05 01:00 6.2 64 4.71 -0.1 9 13 1023.8 0 11.6 22.2 28.2 73.2 56.3 189.7
08/05 00:50 6.9 60 4.62 -0.3 11 13 1023.7 0 11.4 21.8 27.6 71.6 54.7 184.1
08/05 00:40 6.6 60 4.53 -0.6 9 11 1023.8 0 11.2 21.8 27.4 71.0 53.8 180.8
08/05 00:20 6.5 60 4.5 -0.7 7 9 1023.8 0 11.1 21.8 27.3 70.8 53.5 179.7
08/05 00:10 6.7 60 4.56 -0.5 6 7 1023.7 0 11.2 21.8 27.5 71.2 54.1 181.9
08/05 00:00 6.6 64 4.83 0.3 11 13 1023.6 0 11.8 22.2 28.5 74.0 57.5 194.0
07/05 23:50 6.7 61 4.64 -0.3 9 11 1023.7 0 11.4 21.9 27.8 72.0 55.1 185.4
07/05 23:40 7.3 58 4.58 -0.4 11 13 1023.6 0 11.3 21.7 27.3 70.9 53.9 181.4
07/05 23:30 8 54 4.47 -0.7 13 17 1023.5 0 11.0 21.4 26.7 69.2 52.1 175.1
07/05 23:20 8 55 4.55 -0.5 11 15 1023.6 0 11.2 21.5 27.0 70.0 53.1 178.5
07/05 23:10 8.3 52 4.38 -1 13 15 1023.7 0 10.8 21.2 26.3 68.0 50.8 170.6
07/05 23:00 8.4 52 4.41 -0.9 13 20 1023.8 0 10.9 21.2 26.3 68.3 51.1 171.7
07/05 22:50 8.5 52 4.44 -0.8 19 22 1023.5 0 10.9 21.2 26.4 68.4 51.4 172.7
07/05 22:40 8.3 53 4.47 -0.7 22 26 1023.5 0 11.0 21.3 26.6 68.9 51.9 174.4
07/05 22:30 8.4 52 4.41 -0.9 17 22 1023.7 0 10.9 21.2 26.3 68.3 51.1 171.7
07/05 22:20 8.5 52 4.44 -0.8 17 19 1023.6 0 10.9 21.2 26.4 68.5 51.4 172.8
07/05 22:10 8.4 54 4.58 -0.4 19 22 1023.7 0 11.2 21.4 27.0 69.9 53.2 179.0
07/05 22:00 8.5 54 4.61 -0.3 19 22 1023.7 0 11.3 21.5 27.0 70.1 53.5 180.0
07/05 21:50 8.6 52 4.47 -0.7 19 20 1023.7 0 11.0 21.2 26.5 68.7 51.7 173.8
07/05 21:40 9.2 49 4.38 -0.9 15 19 1023.7 0 10.8 21.0 26.0 67.3 50.2 168.8
07/05 21:30 9.5 48 4.37 -0.9 20 26 1023.8 0 10.7 20.9 25.8 66.9 49.9 167.7
07/05 21:20 9.2 49 4.38 -0.9 24 28 1023.5 0 10.8 20.9 26.0 67.3 50.2 168.7
07/05 21:10 8.9 50 4.38 -0.9 22 28 1023.4 0 10.8 21.0 26.1 67.5 50.4 169.3
07/05 21:00 8.5 52 4.44 -0.8 17 24 1023.3 0 10.9 21.2 26.4 68.4 51.4 172.7
07/05 20:50 8.5 52 4.44 -0.8 11 15 1023.3 0 10.9 21.2 26.4 68.4 51.4 172.7
07/05 20:40 8 55 4.55 -0.5 11 13 1023.4 0 11.2 21.5 27.0 69.9 53.1 178.5
07/05 20:30 8.9 49 4.29 -1.2 13 15 1023.2 0 10.6 20.9 25.7 66.6 49.3 165.5
07/05 20:20 9.1 49 4.35 -1 11 13 1023.3 0 10.7 20.9 25.9 67.0 49.9 167.6
07/05 20:10 9.2 49 4.38 -0.9 13 15 1023.3 0 10.8 20.9 26.0 67.3 50.2 168.7
07/05 20:00 8.3 55 4.64 -0.2 9 13 1023.3 0 11.4 21.5 27.2 70.6 53.9 181.7
07/05 19:50 9.2 51 4.56 -0.4 9 11 1023.1 0 11.2 21.2 26.6 69.0 52.4 176.3

Last Refresh: 08-May-2026 12:09:33

Bureau of Meteorology